Time;durP1;ratioP1;P1;durP2;ratioP2;P2;SDS_P1;SDS_P2;PMS_P1;PMS_P2;Temp;Humidity;BMP_temperature;BMP_pressure;BME280_temperature;BME280_humidity;BME280_pressure;Samples;Min_cycle;Max_cycle;Signal;HPM_P1;HPM_P2
2023/02/09 00:01:22;;;;;;;19.67;10.33;;;-6.20;99.90;-6.90;102511.00;;;;4905123;28;88216;-62
2023/02/09 00:03:48;;;;;;;22.47;11.07;;;-6.20;99.90;-6.90;102522.00;;;;4908593;28;86993;-62
2023/02/09 00:06:18;;;;;;;16.87;9.90;;;-6.20;99.90;-7.00;102518.00;;;;4911435;28;118345;-62
2023/02/09 00:08:45;;;;;;;20.53;10.07;;;-6.30;99.90;-7.00;102512.00;;;;4916979;28;88005;-62
2023/02/09 00:14:14;;;;;;;17.27;10.67;;;-6.40;99.90;-7.00;102500.00;;;;4911718;28;88067;-63
2023/02/09 00:16:40;;;;;;;19.93;10.40;;;-6.30;99.90;-7.00;102499.00;;;;4913569;28;104044;-62
2023/02/09 00:19:06;;;;;;;22.50;11.80;;;-6.30;99.90;-7.00;102501.00;;;;4913469;28;108295;-62
2023/02/09 00:21:32;;;;;;;19.40;10.90;;;-6.30;99.90;-7.00;102494.00;;;;4913320;28;114288;-62
2023/02/09 00:23:58;;;;;;;17.67;9.77;;;-6.40;99.90;-7.00;102500.00;;;;4914057;28;109123;-62
2023/02/09 00:26:24;;;;;;;17.17;8.77;;;-6.40;99.90;-7.00;102494.00;;;;4913534;28;87984;-62
2023/02/09 00:28:50;;;;;;;20.97;9.93;;;-6.40;99.90;-7.00;102488.00;;;;4913794;28;117934;-64
2023/02/09 00:31:15;;;;;;;21.43;10.90;;;-6.30;99.90;-7.00;102476.00;;;;4914922;28;109671;-62
2023/02/09 00:33:41;;;;;;;21.17;11.73;;;-6.30;99.90;-7.00;102475.00;;;;4910384;28;107492;-62
2023/02/09 00:36:11;;;;;;;22.03;10.03;;;-6.40;99.90;-7.10;102480.00;;;;4909656;28;103821;-62
2023/02/09 00:38:37;;;;;;;20.17;11.23;;;-6.30;99.90;-7.10;102470.00;;;;4909481;28;89093;-62
2023/02/09 00:41:04;;;;;;;16.50;9.10;;;-6.40;99.90;-7.10;102474.00;;;;4912189;28;88093;-63
2023/02/09 00:43:30;;;;;;;20.67;11.20;;;-6.40;99.90;-7.20;102474.00;;;;4907340;28;101723;-62
2023/02/09 00:45:56;;;;;;;30.23;11.37;;;-6.40;99.90;-7.20;102474.00;;;;4910424;28;88789;-62
2023/02/09 00:48:22;;;;;;;17.40;9.30;;;-6.60;99.90;-7.20;102472.00;;;;4908724;28;117705;-63
2023/02/09 00:50:52;;;;;;;21.80;11.33;;;-6.60;99.90;-7.30;102464.00;;;;4910703;28;87845;-63
2023/02/09 00:53:20;;;;;;;22.23;10.43;;;-6.50;99.90;-7.30;102455.00;;;;4909133;28;101327;-63
2023/02/09 00:55:47;;;;;;;19.37;11.30;;;-6.50;99.90;-7.30;102461.00;;;;4912441;28;88569;-63
2023/02/09 00:58:12;;;;;;;22.10;11.20;;;-6.60;99.90;-7.30;102456.00;;;;4912148;28;94974;-63
2023/02/09 01:00:38;;;;;;;23.50;11.43;;;-6.60;99.90;-7.30;102468.00;;;;4910969;28;88794;-62
2023/02/09 01:03:04;;;;;;;19.50;10.73;;;-6.60;99.90;-7.30;102451.00;;;;4911266;28;108908;-63
2023/02/09 01:05:30;;;;;;;20.27;11.50;;;-6.70;99.90;-7.30;102445.00;;;;4908027;28;88226;-62
2023/02/09 01:07:56;;;;;;;30.37;12.83;;;-6.70;99.90;-7.30;102439.00;;;;4912362;28;102891;-63
2023/02/09 01:10:22;;;;;;;20.50;12.20;;;-6.60;99.90;-7.40;102455.00;;;;4908586;28;93645;-63
2023/02/09 01:12:48;;;;;;;30.80;12.33;;;-6.80;99.90;-7.40;102443.00;;;;4906794;28;87698;-63
2023/02/09 01:15:13;;;;;;;18.63;10.93;;;-6.60;99.90;-7.50;102438.00;;;;4911823;28;117659;-63
2023/02/09 01:17:39;;;;;;;21.17;10.07;;;-6.70;99.90;-7.50;102454.00;;;;4908464;28;117568;-64
2023/02/09 01:20:07;;;;;;;17.33;9.33;;;-6.80;99.90;-7.50;102455.00;;;;4908889;28;112618;-64
2023/02/09 01:22:35;;;;;;;15.73;8.37;;;-6.80;99.90;-7.50;102444.00;;;;4914729;28;87859;-63
2023/02/09 01:25:01;;;;;;;16.60;8.80;;;-6.80;99.90;-7.50;102441.00;;;;4911109;28;89317;-64
2023/02/09 01:27:27;;;;;;;16.60;9.70;;;-6.80;99.90;-7.50;102448.00;;;;4909308;28;110415;-64
2023/02/09 01:29:52;;;;;;;19.43;9.27;;;-6.70;99.90;-7.60;102445.00;;;;4913437;28;109574;-64
2023/02/09 01:32:18;;;;;;;16.27;10.13;;;-6.90;99.90;-7.60;102441.00;;;;4911725;28;108517;-64
2023/02/09 01:34:44;;;;;;;21.97;10.10;;;-6.90;99.90;-7.60;102442.00;;;;4910587;28;117783;-64
2023/02/09 01:37:09;;;;;;;16.63;9.37;;;-7.00;99.90;-7.70;102430.00;;;;4908060;28;106048;-64
2023/02/09 01:39:35;;;;;;;20.03;9.47;;;-6.80;99.90;-7.80;102435.00;;;;4911042;28;112397;-64
2023/02/09 01:42:02;;;;;;;13.67;7.20;;;-7.00;99.90;-7.80;102431.00;;;;4914668;28;98118;-64
2023/02/09 01:44:27;;;;;;;14.77;8.10;;;-7.00;99.90;-7.70;102429.00;;;;4907812;28;89198;-64
2023/02/09 01:46:53;;;;;;;18.57;8.60;;;-7.10;99.90;-7.80;102423.00;;;;4907501;28;97304;-64
2023/02/09 01:49:25;;;;;;;14.47;8.20;;;-6.90;99.90;-7.80;102425.00;;;;4905765;28;110502;-64
2023/02/09 01:52:02;;;;;;;20.63;9.10;;;-7.10;99.90;-7.80;102419.00;;;;4924757;28;88841;-64
2023/02/09 01:54:45;;;;;;;14.27;7.67;;;-7.10;99.90;-7.80;102416.00;;;;4910594;28;88811;-64
2023/02/09 01:57:19;;;;;;;13.03;6.90;;;-7.10;99.90;-7.80;102409.00;;;;4922150;28;106213;-65
2023/02/09 01:59:54;;;;;;;14.83;7.87;;;-7.00;99.90;-7.80;102407.00;;;;4928260;28;87839;-64
2023/02/09 02:02:21;;;;;;;14.77;7.47;;;-7.10;99.90;-7.80;102397.00;;;;4922137;28;99987;-64
2023/02/09 02:04:46;;;;;;;12.20;6.77;;;-7.10;99.90;-7.80;102412.00;;;;4906969;28;117743;-65
2023/02/09 02:07:38;;;;;;;16.53;8.70;;;-7.10;99.90;-7.90;102406.00;;;;4908494;28;116372;-65
2023/02/09 02:10:05;;;;;;;13.60;8.20;;;-7.10;99.90;-7.90;102416.00;;;;4925848;28;99511;-65
2023/02/09 02:12:31;;;;;;;15.37;8.60;;;-7.20;99.90;-7.90;102414.00;;;;4906933;28;99872;-65
2023/02/09 02:14:57;;;;;;;16.60;8.80;;;-7.30;99.90;-8.00;102414.00;;;;4924790;28;89195;-65
2023/02/09 02:17:58;;;;;;;14.33;8.27;;;-7.90;99.90;-8.10;102406.00;;;;4909726;28;117509;-64
2023/02/09 02:21:21;;;;;;;14.93;8.87;;;-7.30;99.90;-8.20;102401.00;;;;4908924;28;88023;-65
2023/02/09 02:24:28;;;;;;;15.67;8.33;;;-7.30;99.90;-8.20;102407.00;;;;4907260;28;87632;-65
2023/02/09 02:26:58;;;;;;;15.40;8.63;;;-7.50;99.90;-8.20;102402.00;;;;4907379;28;112585;-65
2023/02/09 02:30:12;;;;;;;12.60;7.87;;;-7.50;99.90;-8.30;102408.00;;;;4922980;28;95717;-65
2023/02/09 02:32:52;;;;;;;16.57;8.17;;;-7.60;99.90;-8.30;102406.00;;;;4903683;28;88035;-64
2023/02/09 02:35:33;;;;;;;17.13;8.27;;;-7.60;99.90;-8.40;102403.00;;;;4924717;28;101984;-65
2023/02/09 02:39:00;;;;;;;18.23;8.40;;;-7.60;99.90;-8.50;102405.00;;;;4928176;28;106421;-65
2023/02/09 02:44:47;;;;;;;13.03;7.13;;;-7.70;99.90;-8.50;102410.00;;;;4922653;28;88838;-66
2023/02/09 02:47:18;;;;;;;12.57;6.73;;;-7.20;99.90;-8.40;102405.00;;;;4903634;28;103133;-64
2023/02/09 02:49:59;;;;;;;14.73;7.80;;;-7.70;99.90;-8.40;102393.00;;;;4921883;28;88641;-64
2023/02/09 02:52:25;;;;;;;11.70;6.80;;;-7.80;99.90;-8.40;102389.00;;;;4923180;28;111653;-65
2023/02/09 02:55:00;;;;;;;15.50;7.80;;;-7.80;99.90;-8.50;102382.00;;;;4920778;28;108947;-64
2023/02/09 02:57:30;;;;;;;11.30;7.20;;;-7.70;99.90;-8.50;102390.00;;;;4908341;28;91054;-65
2023/02/09 03:00:22;;;;;;;13.73;8.43;;;-7.70;99.90;-8.50;102384.00;;;;4923844;28;88918;-65
2023/02/09 03:02:59;;;;;;;13.67;7.50;;;-7.80;99.90;-8.50;102387.00;;;;4910146;28;109407;-65
2023/02/09 03:05:26;;;;;;;16.37;8.37;;;-6.90;99.90;-8.50;102375.00;;;;4925017;28;104824;-65
2023/02/09 03:07:52;;;;;;;14.30;7.60;;;-7.70;99.90;-8.50;102362.00;;;;4922097;28;97996;-65
2023/02/09 03:10:37;;;;;;;19.33;7.97;;;-7.70;99.90;-8.50;102381.00;;;;4907125;28;117647;-65
2023/02/09 03:13:07;;;;;;;10.90;7.07;;;-7.70;99.90;-8.60;102373.00;;;;4908521;28;88540;-65
2023/02/09 03:15:40;;;;;;;14.23;7.67;;;-7.90;99.90;-8.60;102366.00;;;;4909470;28;88048;-65
2023/02/09 03:18:30;;;;;;;16.20;7.37;;;-7.90;99.90;-8.60;102376.00;;;;4923822;28;103070;-65
2023/02/09 03:21:11;;;;;;;13.20;7.27;;;-7.80;99.90;-8.60;102368.00;;;;4923456;28;91374;-65
2023/02/09 03:24:31;;;;;;;14.57;7.47;;;-7.80;99.90;-8.70;102374.00;;;;4907337;28;109692;-64
2023/02/09 03:27:12;;;;;;;13.50;7.00;;;-7.80;99.90;-8.60;102373.00;;;;4884013;28;87930;-66
2023/02/09 03:29:40;;;;;;;13.23;7.83;;;-7.80;99.90;-8.60;102361.00;;;;4926960;28;86996;-65
2023/02/09 03:32:06;;;;;;;10.60;6.47;;;-7.80;99.90;-8.60;102363.00;;;;4924736;28;96210;-64
2023/02/09 03:34:32;;;;;;;12.53;6.93;;;-7.90;99.90;-8.60;102362.00;;;;4909884;28;87905;-65
2023/02/09 03:36:58;;;;;;;15.47;7.80;;;-7.90;99.90;-8.70;102363.00;;;;4923144;28;108798;-65
2023/02/09 03:39:23;;;;;;;13.20;6.73;;;-7.90;99.90;-8.70;102365.00;;;;4908492;28;109535;-65
2023/02/09 03:41:49;;;;;;;12.30;6.07;;;-7.90;99.90;-8.70;102359.00;;;;4913862;28;118238;-65
2023/02/09 03:44:27;;;;;;;11.13;6.07;;;-7.20;99.90;-8.70;102355.00;;;;4911746;28;116250;-64
2023/02/09 03:47:02;;;;;;;16.27;7.10;;;-7.90;99.90;-8.80;102355.00;;;;4913635;28;87881;-65
2023/02/09 03:49:32;;;;;;;14.33;6.70;;;-8.00;99.90;-8.70;102354.00;;;;4912536;28;100896;-65
2023/02/09 03:51:59;;;;;;;12.07;6.33;;;-7.90;99.90;-8.80;102352.00;;;;4911547;28;88650;-65
2023/02/09 03:54:30;;;;;;;11.30;6.47;;;-7.90;99.90;-8.80;102352.00;;;;4913494;28;98148;-65
2023/02/09 03:56:56;;;;;;;10.97;6.40;;;-7.80;99.90;-8.80;102349.00;;;;4912446;28;88119;-65
2023/02/09 03:59:25;;;;;;;12.50;7.00;;;-8.00;99.90;-8.80;102334.00;;;;4910110;28;87979;-65
2023/02/09 04:01:55;;;;;;;17.73;7.97;;;-8.00;99.90;-8.80;102349.00;;;;4914027;28;89754;-65
2023/02/09 04:04:21;;;;;;;12.20;7.03;;;-8.20;99.90;-8.80;102350.00;;;;4910971;28;111253;-65
2023/02/09 04:06:49;;;;;;;12.70;6.33;;;-8.10;99.90;-8.80;102346.00;;;;4912445;28;87765;-65
2023/02/09 04:09:15;;;;;;;12.43;6.97;;;-8.10;99.90;-8.80;102337.00;;;;4927775;28;88060;-65
2023/02/09 04:11:41;;;;;;;12.90;7.17;;;-8.10;99.90;-8.80;102347.00;;;;4445102;28;89076;-65
2023/02/09 04:14:09;;;;;;;17.73;7.10;;;-8.10;99.90;-8.80;102334.00;;;;4909746;28;88381;-65
2023/02/09 04:16:36;;;;;;;13.97;6.77;;;-7.90;99.90;-8.70;102335.00;;;;4913393;28;87900;-65
2023/02/09 04:19:03;;;;;;;13.73;6.40;;;-8.00;99.90;-8.70;102322.00;;;;4913295;28;87324;-66
2023/02/09 04:21:29;;;;;;;13.57;7.77;;;-8.00;99.90;-8.70;102328.00;;;;4919998;28;87794;-65
2023/02/09 04:23:55;;;;;;;10.70;6.53;;;-8.00;99.90;-8.80;102327.00;;;;4915140;28;88006;-65
2023/02/09 04:26:20;;;;;;;12.40;6.80;;;-8.00;99.90;-8.70;102333.00;;;;4917637;28;88947;-65
2023/02/09 04:28:46;;;;;;;12.90;7.70;;;-8.00;99.90;-8.80;102330.00;;;;4915768;28;107062;-65
2023/02/09 04:31:12;;;;;;;13.13;7.97;;;-7.80;99.90;-8.80;102324.00;;;;4912895;28;107192;-65
2023/02/09 04:33:38;;;;;;;16.13;7.00;;;-8.00;99.90;-8.70;102322.00;;;;4915259;28;98201;-66
2023/02/09 04:36:05;;;;;;;11.80;6.97;;;-8.00;99.90;-8.70;102331.00;;;;4908783;28;111004;-66
2023/02/09 04:38:31;;;;;;;13.07;7.73;;;-7.90;99.90;-8.70;102330.00;;;;4910806;28;98440;-65
2023/02/09 04:41:00;;;;;;;13.23;8.20;;;-8.10;99.90;-8.80;102319.00;;;;4908930;28;117522;-65
2023/02/09 04:43:26;;;;;;;13.63;7.67;;;-7.90;99.90;-8.80;102312.00;;;;4909609;28;88582;-65
2023/02/09 04:45:53;;;;;;;12.83;7.37;;;-8.00;99.90;-8.80;102332.00;;;;4909883;28;87974;-65
2023/02/09 04:48:21;;;;;;;17.20;8.83;;;-8.00;99.90;-8.80;102305.00;;;;4906146;28;87956;-65
2023/02/09 04:50:47;;;;;;;13.93;8.03;;;-8.00;99.90;-8.80;102313.00;;;;4905655;28;112926;-65
2023/02/09 04:53:14;;;;;;;15.67;7.90;;;-8.10;99.90;-8.90;102301.00;;;;4907216;28;105183;-65
2023/02/09 04:55:42;;;;;;;15.17;7.13;;;-8.10;99.90;-8.90;102315.00;;;;4909434;28;87898;-64
2023/02/09 05:00:59;;;;;;;17.70;9.00;;;-8.20;99.90;-9.00;102306.00;;;;4925334;28;87905;-65
2023/02/09 05:03:25;;;;;;;20.20;9.77;;;-8.10;99.90;-9.00;102313.00;;;;4897428;28;88416;-65
2023/02/09 05:05:57;;;;;;;18.10;8.80;;;-8.20;99.90;-9.00;102306.00;;;;4907811;28;88976;-66
2023/02/09 05:08:23;;;;;;;16.53;8.40;;;-8.20;99.90;-9.00;102303.00;;;;4910492;28;101182;-64
2023/02/09 05:10:51;;;;;;;16.20;8.73;;;-8.30;99.90;-9.00;102314.00;;;;4911633;28;89083;-66
2023/02/09 05:13:18;;;;;;;17.37;8.90;;;-8.20;99.90;-9.00;102314.00;;;;4911521;28;88000;-64
2023/02/09 05:15:44;;;;;;;14.97;7.97;;;-8.30;99.90;-9.00;102319.00;;;;4908945;28;89208;-65
2023/02/09 05:18:10;;;;;;;24.57;10.90;;;-8.30;99.90;-9.10;102299.00;;;;4907681;28;109382;-65
2023/02/09 05:20:36;;;;;;;18.47;10.23;;;-8.20;99.90;-9.10;102301.00;;;;4904534;28;109333;-65
2023/02/09 05:23:02;;;;;;;14.77;8.47;;;-8.40;99.90;-9.10;102309.00;;;;4909837;28;88058;-66
2023/02/09 05:25:28;;;;;;;20.57;10.27;;;-8.30;99.90;-9.10;102308.00;;;;4924013;28;87774;-65
2023/02/09 05:27:54;;;;;;;16.00;8.37;;;-8.30;99.90;-9.10;102316.00;;;;4909465;28;87889;-65
2023/02/09 05:30:20;;;;;;;20.37;9.43;;;-7.80;99.90;-9.10;102310.00;;;;4909371;28;116612;-65
2023/02/09 05:32:46;;;;;;;18.67;9.27;;;-8.30;99.90;-9.10;102311.00;;;;4909762;28;88937;-65
2023/02/09 05:35:12;;;;;;;19.20;8.63;;;-8.30;99.90;-9.10;102305.00;;;;4910511;28;96577;-65
2023/02/09 05:37:38;;;;;;;15.47;7.97;;;-8.40;99.90;-9.10;102299.00;;;;4908491;28;102430;-65
2023/02/09 05:40:04;;;;;;;18.10;9.47;;;-8.40;99.90;-9.20;102315.00;;;;4909456;28;118959;-66
2023/02/09 05:42:30;;;;;;;18.60;9.43;;;-8.20;99.90;-9.20;102306.00;;;;4905142;28;88083;-65
2023/02/09 05:44:56;;;;;;;19.23;10.13;;;-8.10;99.90;-9.20;102308.00;;;;4905836;28;103366;-64
2023/02/09 05:47:23;;;;;;;17.27;8.73;;;-8.00;99.90;-9.20;102313.00;;;;4910135;28;106393;-65
2023/02/09 05:49:50;;;;;;;18.63;9.00;;;-8.40;99.90;-9.20;102298.00;;;;4909607;28;88977;-65
2023/02/09 05:52:17;;;;;;;15.10;8.83;;;-8.40;99.90;-9.20;102299.00;;;;4908908;28;87974;-65
2023/02/09 05:54:43;;;;;;;16.10;8.00;;;-8.40;99.90;-9.20;102298.00;;;;4908280;28;87835;-65
2023/02/09 05:57:09;;;;;;;20.13;9.17;;;-8.50;99.90;-9.20;102306.00;;;;4909183;28;87318;-65
2023/02/09 05:59:34;;;;;;;16.07;8.57;;;-8.40;99.90;-9.20;102306.00;;;;4906464;28;92936;-65
2023/02/09 06:02:00;;;;;;;16.57;9.13;;;-8.40;99.90;-9.20;102297.00;;;;4906705;28;117656;-65
2023/02/09 06:04:27;;;;;;;17.40;8.57;;;-8.50;99.90;-9.20;102302.00;;;;4902442;28;90548;-65
2023/02/09 06:06:53;;;;;;;20.70;9.33;;;-8.30;99.90;-9.10;102310.00;;;;4917424;28;88029;-66
2023/02/09 06:09:19;;;;;;;16.67;10.10;;;-8.40;99.90;-9.20;102303.00;;;;4904451;28;106467;-65
2023/02/09 06:11:45;;;;;;;21.87;12.10;;;-8.40;99.90;-9.20;102306.00;;;;4904261;28;117081;-65
2023/02/09 06:14:10;;;;;;;21.90;10.27;;;-8.00;99.90;-9.10;102307.00;;;;4914446;28;113641;-66
2023/02/09 06:16:36;;;;;;;19.87;10.00;;;-8.40;99.90;-9.20;102297.00;;;;4910358;28;108899;-65
2023/02/09 06:19:02;;;;;;;21.93;10.97;;;-8.40;99.90;-9.20;102313.00;;;;4906896;28;116320;-65
2023/02/09 06:21:28;;;;;;;15.73;9.90;;;-8.40;99.90;-9.20;102301.00;;;;4909321;28;117779;-65
2023/02/09 06:23:54;;;;;;;19.10;10.17;;;-8.40;99.90;-9.20;102297.00;;;;4913706;28;103524;-65
2023/02/09 06:26:20;;;;;;;23.50;12.67;;;-8.40;99.90;-9.20;102299.00;;;;4905484;28;108912;-65
2023/02/09 06:28:46;;;;;;;29.97;13.63;;;-8.30;99.90;-9.20;102296.00;;;;4910718;28;89363;-65
2023/02/09 06:31:12;;;;;;;23.63;11.23;;;-8.50;99.90;-9.30;102306.00;;;;4908092;28;119521;-65
2023/02/09 06:33:38;;;;;;;20.13;10.63;;;-8.50;99.90;-9.30;102287.00;;;;4906813;28;105486;-65
2023/02/09 06:36:05;;;;;;;15.83;9.90;;;-8.60;99.90;-9.30;102290.00;;;;4908163;28;109653;-65
2023/02/09 06:38:32;;;;;;;21.43;10.27;;;-8.50;99.90;-9.30;102299.00;;;;4908215;28;88839;-65
2023/02/09 06:40:58;;;;;;;13.93;8.37;;;-8.60;99.90;-9.40;102305.00;;;;4906266;28;112201;-64
2023/02/09 06:43:23;;;;;;;22.63;12.30;;;-8.70;99.90;-9.30;102316.00;;;;4908200;28;113162;-64
2023/02/09 06:45:49;;;;;;;19.60;10.70;;;-8.60;99.90;-9.40;102313.00;;;;4906561;28;109500;-65
2023/02/09 06:48:15;;;;;;;17.87;10.80;;;-8.50;99.90;-9.30;102316.00;;;;4906320;28;116318;-64
2023/02/09 06:50:40;;;;;;;25.20;14.33;;;-8.50;99.90;-9.30;102320.00;;;;4907427;28;115436;-64
2023/02/09 06:53:06;;;;;;;21.20;11.97;;;-8.50;99.90;-9.20;102334.00;;;;4904422;28;112844;-64
2023/02/09 06:55:33;;;;;;;29.57;13.47;;;-7.80;99.90;-9.20;102317.00;;;;4904550;28;108738;-65
2023/02/09 06:57:58;;;;;;;26.60;14.20;;;-8.50;99.90;-9.20;102336.00;;;;4908704;28;105070;-65
2023/02/09 07:00:25;;;;;;;24.27;13.00;;;-8.50;99.90;-9.20;102331.00;;;;4907186;28;89280;-65
2023/02/09 07:02:51;;;;;;;27.60;17.27;;;-7.40;99.90;-9.10;102329.00;;;;4907693;28;88036;-65
2023/02/09 07:05:17;;;;;;;27.00;15.67;;;-8.40;99.90;-9.10;102332.00;;;;4906681;28;88061;-65
2023/02/09 07:07:44;;;;;;;21.97;12.77;;;-8.30;99.90;-9.00;102312.00;;;;4921372;28;107137;-65
2023/02/09 07:10:14;;;;;;;23.30;13.03;;;-8.20;99.90;-8.80;102319.00;;;;4907516;28;110621;-64
2023/02/09 07:12:42;;;;;;;24.83;15.33;;;-8.10;99.90;-8.70;102301.00;;;;4907153;28;91381;-66
2023/02/09 07:15:08;;;;;;;28.97;17.03;;;-8.00;99.90;-8.40;102312.00;;;;4904822;28;87950;-64
2023/02/09 07:17:34;;;;;;;21.40;13.87;;;-7.90;99.90;-8.20;102315.00;;;;4908068;28;90035;-64
2023/02/09 07:20:00;;;;;;;30.43;14.70;;;-7.50;99.90;-7.90;102310.00;;;;4909574;28;117896;-65
2023/02/09 07:22:25;;;;;;;26.30;14.73;;;-7.30;99.90;-7.50;102314.00;;;;4905864;28;111597;-64
2023/02/09 07:24:51;;;;;;;24.20;13.57;;;-7.00;99.90;-7.10;102315.00;;;;4909925;28;87788;-64
2023/02/09 07:27:18;;;;;;;27.47;13.60;;;-6.70;99.90;-6.80;102308.00;;;;4906456;28;117381;-64
2023/02/09 07:29:44;;;;;;;19.90;12.13;;;-6.30;99.90;-6.30;102324.00;;;;4904706;28;87961;-64
2023/02/09 07:32:10;;;;;;;20.47;13.50;;;-6.00;99.90;-6.00;102315.00;;;;4908410;28;94271;-64
2023/02/09 07:34:36;;;;;;;24.50;12.83;;;-5.50;99.90;-5.60;102317.00;;;;4907733;28;109419;-63
2023/02/09 07:37:03;;;;;;;22.53;13.10;;;-5.10;99.90;-5.20;102317.00;;;;4911289;28;88021;-63
2023/02/09 07:39:29;;;;;;;21.07;12.17;;;-4.70;99.90;-4.80;102316.00;;;;4909165;28;92639;-63
2023/02/09 07:41:55;;;;;;;26.37;13.17;;;-4.30;99.90;-4.40;102317.00;;;;4912256;28;96632;-62
2023/02/09 07:44:21;;;;;;;18.67;11.03;;;-4.00;99.90;-4.10;102317.00;;;;4910256;28;91973;-63
2023/02/09 07:46:47;;;;;;;20.33;13.10;;;-3.60;99.90;-3.80;102313.00;;;;4910667;28;117669;-62
2023/02/09 07:49:12;;;;;;;15.20;10.37;;;-3.40;99.90;-3.50;102322.00;;;;4907765;28;103609;-62
2023/02/09 07:51:38;;;;;;;20.80;11.33;;;-3.10;99.90;-3.30;102319.00;;;;4908332;28;113121;-62
2023/02/09 07:54:04;;;;;;;19.77;11.70;;;-2.80;99.90;-3.00;102323.00;;;;4910443;28;108309;-62
2023/02/09 07:56:30;;;;;;;18.27;10.63;;;-2.70;99.90;-2.80;102323.00;;;;4906729;28;108546;-62
2023/02/09 07:58:56;;;;;;;16.13;9.37;;;-2.30;99.90;-2.50;102318.00;;;;4906921;28;107520;-61
2023/02/09 08:01:23;;;;;;;12.40;8.07;;;-2.10;99.90;-2.30;102321.00;;;;4908245;28;87853;-62
2023/02/09 08:03:49;;;;;;;13.67;9.37;;;-1.80;99.90;-2.10;102322.00;;;;4910748;28;97752;-62
2023/02/09 08:06:41;;;;;;;9.17;6.60;;;-1.60;99.90;-1.80;102319.00;;;;4909455;28;96013;-63
2023/02/09 08:09:08;;;;;;;14.43;7.37;;;-1.30;99.90;-1.60;102317.00;;;;4911199;28;88836;-63
2023/02/09 08:11:54;;;;;;;9.67;6.17;;;-1.20;99.90;-1.30;102305.00;;;;4917389;28;87882;-65
2023/02/09 08:14:28;;;;;;;6.37;5.40;;;-0.90;99.90;-1.00;102324.00;;;;4912313;28;87968;-65
2023/02/09 08:19:50;;;;;;;8.90;5.23;;;-0.50;99.90;-0.50;102322.00;;;;4920941;28;89235;-64
2023/02/09 08:22:16;;;;;;;8.67;5.47;;;-0.20;99.90;-0.20;102307.00;;;;4911489;28;104653;-65
2023/02/09 08:24:42;;;;;;;8.93;5.57;;;0.00;99.90;0.00;102313.00;;;;4910293;28;87085;-65
2023/02/09 08:27:08;;;;;;;5.43;4.10;;;0.40;99.90;0.30;102316.00;;;;4912059;28;118229;-66
2023/02/09 08:29:34;;;;;;;11.17;6.87;;;0.40;99.90;0.50;102321.00;;;;4925912;28;87964;-66
2023/02/09 08:31:59;;;;;;;10.07;4.63;;;0.70;99.90;0.60;102315.00;;;;4912871;28;99993;-65
2023/02/09 08:34:25;;;;;;;7.43;5.17;;;0.90;99.90;0.80;102318.00;;;;4909729;28;109775;-66
2023/02/09 08:36:52;;;;;;;8.03;5.00;;;1.00;99.90;0.90;102331.00;;;;4911578;28;88011;-65
2023/02/09 08:39:17;;;;;;;10.63;5.20;;;2.40;99.90;1.10;102320.00;;;;4911613;28;87832;-66
2023/02/09 08:41:43;;;;;;;7.37;5.33;;;1.40;99.90;1.30;102312.00;;;;4905797;28;111084;-65
2023/02/09 08:44:09;;;;;;;10.67;5.43;;;1.60;99.50;1.50;102318.00;;;;4908657;28;110834;-66
2023/02/09 08:46:34;;;;;;;10.83;5.47;;;1.70;99.30;1.60;102306.00;;;;4906668;28;118319;-66
2023/02/09 08:49:00;;;;;;;12.30;6.37;;;1.80;98.30;1.80;102311.00;;;;4910601;28;118316;-64
2023/02/09 08:51:26;;;;;;;9.63;4.93;;;2.00;96.80;1.90;102312.00;;;;4909774;28;112128;-65
2023/02/09 08:53:51;;;;;;;10.57;5.33;;;2.20;96.80;2.10;102309.00;;;;4911273;28;105955;-65
2023/02/09 08:56:19;;;;;;;10.63;4.63;;;2.60;96.00;2.30;102309.00;;;;4908612;28;90972;-64
2023/02/09 08:58:45;;;;;;;10.87;5.27;;;2.50;95.70;2.40;102318.00;;;;4906133;28;88029;-64
2023/02/09 09:01:12;;;;;;;9.70;4.33;;;2.60;93.30;2.50;102328.00;;;;4912578;28;88733;-65
2023/02/09 09:03:40;;;;;;;9.77;4.83;;;2.70;93.10;2.70;102309.00;;;;4911571;28;87948;-65
2023/02/09 09:06:08;;;;;;;10.07;6.07;;;2.80;93.60;2.80;102311.00;;;;4911454;28;88274;-64
2023/02/09 09:08:36;;;;;;;14.17;5.43;;;3.00;93.30;3.10;102318.00;;;;4910044;28;88078;-64
2023/02/09 09:11:02;;;;;;;12.20;5.43;;;3.30;90.80;3.10;102308.00;;;;4912922;28;88247;-63
2023/02/09 09:13:28;;;;;;;9.67;6.00;;;3.30;90.30;3.20;102305.00;;;;4910354;28;91668;-64
2023/02/09 09:15:54;;;;;;;7.60;5.57;;;3.40;90.20;3.30;102320.00;;;;4910505;28;109837;-64
2023/02/09 09:18:21;;;;;;;8.00;4.97;;;3.50;87.40;3.40;102310.00;;;;4908973;28;88742;-64
2023/02/09 09:20:48;;;;;;;10.23;5.73;;;4.40;85.00;3.40;102319.00;;;;4908802;28;88821;-64
2023/02/09 09:23:14;;;;;;;6.80;5.00;;;4.40;85.80;3.60;102315.00;;;;4912668;28;97597;-63
2023/02/09 09:25:40;;;;;;;8.40;5.53;;;3.70;84.40;3.60;102325.00;;;;4910987;28;106707;-65
2023/02/09 09:28:06;;;;;;;8.90;5.90;;;3.90;81.80;3.70;102316.00;;;;4909361;28;116655;-64
2023/02/09 09:30:32;;;;;;;6.93;4.33;;;3.90;80.90;3.70;102304.00;;;;4910837;28;100571;-63
2023/02/09 09:32:59;;;;;;;7.77;5.17;;;3.90;77.90;3.70;102313.00;;;;4915306;28;109715;-65
2023/02/09 09:35:26;;;;;;;5.20;4.23;;;3.90;77.10;3.80;102321.00;;;;4911946;28;109827;-64
2023/02/09 09:37:54;;;;;;;6.43;5.50;;;3.90;77.60;3.90;102318.00;;;;4916912;28;89209;-64
2023/02/09 09:40:27;;;;;;;7.57;5.33;;;4.00;78.40;4.10;102318.00;;;;4911989;28;88164;-64
2023/02/09 09:43:01;;;;;;;10.70;4.83;;;4.40;76.70;4.10;102322.00;;;;4908221;28;87817;-64
2023/02/09 09:45:30;;;;;;;13.03;6.70;;;4.30;74.30;4.20;102329.00;;;;4911888;28;111602;-65
2023/02/09 09:47:56;;;;;;;7.77;5.27;;;4.30;75.20;4.30;102309.00;;;;4904735;28;111691;-64
2023/02/09 09:50:31;;;;;;;9.70;6.00;;;4.50;74.30;4.30;102307.00;;;;4909735;28;110060;-65
2023/02/09 09:53:14;;;;;;;11.20;5.57;;;4.60;71.80;4.30;102311.00;;;;4914754;28;87914;-65
2023/02/09 09:55:39;;;;;;;6.27;4.70;;;4.60;70.30;4.30;102315.00;;;;4911893;28;110904;-65
2023/02/09 09:58:06;;;;;;;10.77;6.10;;;4.60;69.50;4.50;102302.00;;;;4928246;28;116071;-65
2023/02/09 10:00:35;;;;;;;12.40;5.57;;;4.60;70.50;4.60;102314.00;;;;4913459;28;111148;-65
2023/02/09 10:03:02;;;;;;;8.90;5.97;;;4.80;70.70;4.80;102320.00;;;;4908633;28;87098;-64
2023/02/09 10:05:37;;;;;;;5.63;4.67;;;4.90;71.00;5.00;102317.00;;;;4912127;28;88822;-65
2023/02/09 10:08:18;;;;;;;13.63;5.87;;;5.00;69.20;5.20;102319.00;;;;4915929;28;88971;-66
2023/02/09 10:11:13;;;;;;;6.73;4.73;;;5.30;68.20;5.30;102312.00;;;;4913937;28;88780;-65
2023/02/09 10:13:49;;;;;;;9.40;6.00;;;5.40;68.60;5.40;102310.00;;;;4913623;28;88175;-65
2023/02/09 10:16:33;;;;;;;9.27;4.47;;;5.40;67.40;5.50;102318.00;;;;4910647;28;88143;-65
2023/02/09 10:19:24;;;;;;;13.57;5.93;;;5.70;66.10;5.70;102315.00;;;;4911409;28;87915;-64
2023/02/09 10:21:51;;;;;;;7.73;4.90;;;5.80;67.70;6.00;102309.00;;;;4912702;28;88157;-65
2023/02/09 10:24:33;;;;;;;7.03;4.70;;;5.90;66.60;6.20;102309.00;;;;4912336;28;87825;-67
2023/02/09 10:27:23;;;;;;;10.57;5.40;;;7.10;65.00;6.20;102298.00;;;;4912268;28;88139;-65
2023/02/09 10:29:49;;;;;;;6.83;5.00;;;6.30;62.20;6.30;102309.00;;;;4907849;28;87041;-65
2023/02/09 10:32:35;;;;;;;11.57;4.60;;;7.40;63.40;6.40;102300.00;;;;4912750;28;109666;-65
2023/02/09 10:35:07;;;;;;;6.93;4.57;;;7.00;61.90;6.50;102297.00;;;;4927699;28;100590;-65
2023/02/09 10:37:37;;;;;;;9.67;5.10;;;7.00;61.70;6.50;102301.00;;;;4923135;28;90581;-65
2023/02/09 10:40:15;;;;;;;7.87;4.33;;;6.60;59.90;6.60;102290.00;;;;4911962;28;89702;-66
2023/02/09 10:42:55;;;;;;;8.30;5.23;;;6.70;59.60;6.70;102280.00;;;;4913362;28;103867;-66
2023/02/09 10:45:39;;;;;;;8.87;4.43;;;6.80;58.80;6.90;102282.00;;;;4908904;28;92815;-66
2023/02/09 10:48:11;;;;;;;9.03;5.07;;;6.90;58.30;7.00;102276.00;;;;4923239;28;88140;-67
2023/02/09 10:51:11;;;;;;;7.57;4.70;;;7.50;58.10;7.10;102284.00;;;;4911845;28;119261;-67
2023/02/09 10:54:02;;;;;;;6.97;4.73;;;7.20;57.90;7.10;102277.00;;;;4912147;28;87739;-66
2023/02/09 10:56:45;;;;;;;8.47;4.40;;;7.20;56.20;7.00;102280.00;;;;4913097;28;87605;-67
2023/02/09 10:59:24;;;;;;;6.73;4.23;;;7.10;55.30;7.00;102279.00;;;;4907610;28;113476;-68
2023/02/09 11:01:59;;;;;;;8.73;4.50;;;7.20;55.40;7.10;102282.00;;;;4908575;28;87883;-67
2023/02/09 11:04:36;;;;;;;8.20;4.70;;;7.20;55.70;7.30;102278.00;;;;4909111;28;88651;-67